createdAt,value
2019-05-09T00:01:44.831Z,7.01
2019-05-09T00:04:13.934Z,6.98
2019-05-09T00:06:43.069Z,6.95
2019-05-09T00:09:10.123Z,6.90
2019-05-09T00:11:37.194Z,6.86
2019-05-09T00:14:04.723Z,6.81
2019-05-09T00:16:33.492Z,6.69
2019-05-09T00:19:03.298Z,6.63
2019-05-09T00:21:30.240Z,6.59
2019-05-09T00:23:58.304Z,6.55
2019-05-09T00:26:25.371Z,6.54
2019-05-09T00:28:53.388Z,6.55
2019-05-09T00:31:20.819Z,6.49
2019-05-09T00:33:48.308Z,6.47
2019-05-09T00:36:15.464Z,6.50
2019-05-09T00:38:43.474Z,6.56
2019-05-09T00:41:10.652Z,6.52
2019-05-09T00:43:37.725Z,6.49
2019-05-09T00:46:04.824Z,6.45
2019-05-09T00:48:33.674Z,6.48
2019-05-09T00:51:03.270Z,6.48
2019-05-09T00:53:30.124Z,6.45
2019-05-09T00:55:57.468Z,6.42
2019-05-09T00:58:24.798Z,6.43
2019-05-09T01:00:53.297Z,6.40
2019-05-09T01:03:20.841Z,6.42
2019-05-09T01:05:48.297Z,6.49
2019-05-09T01:08:15.654Z,6.54
2019-05-09T01:10:43.662Z,6.62
2019-05-09T01:13:10.901Z,6.68
2019-05-09T01:15:38.336Z,6.71
2019-05-09T01:18:05.690Z,6.76
2019-05-09T01:20:33.851Z,6.80
2019-05-09T01:23:03.315Z,6.82
2019-05-09T01:25:29.712Z,6.85
2019-05-09T01:27:56.785Z,6.86
2019-05-09T01:30:24.289Z,6.89
2019-05-09T01:32:53.829Z,6.94
2019-05-09T01:35:20.554Z,6.95
2019-05-09T01:37:48.701Z,6.97
2019-05-09T01:40:15.785Z,6.98
2019-05-09T01:42:43.343Z,7.00
2019-05-09T01:45:10.393Z,7.01
2019-05-09T01:47:37.768Z,7.01
2019-05-09T01:50:04.945Z,7.00
2019-05-09T01:52:33.770Z,7.02
2019-05-09T01:55:03.576Z,7.03
2019-05-09T01:57:30.433Z,7.03
2019-05-09T01:59:57.504Z,7.04
2019-05-09T02:02:24.942Z,7.02
2019-05-09T02:04:53.319Z,6.95
2019-05-09T02:07:20.744Z,6.81
2019-05-09T02:09:48.130Z,6.69
2019-05-09T02:12:15.214Z,6.56
2019-05-09T02:14:43.721Z,6.56
2019-05-09T02:17:11.253Z,6.63
2019-05-09T02:19:38.704Z,6.69
2019-05-09T02:22:06.756Z,6.69
2019-05-09T02:24:33.947Z,6.68
2019-05-09T02:27:01.127Z,6.68
2019-05-09T02:29:28.465Z,6.63
2019-05-09T02:31:55.549Z,6.55
2019-05-09T02:34:24.844Z,6.41
2019-05-09T02:36:52.006Z,6.29
2019-05-09T02:39:19.366Z,6.19
2019-05-09T02:42:01.017Z,6.12
2019-05-09T02:44:15.816Z,6.06
2019-05-09T02:46:42.899Z,6.06
2019-05-09T02:49:09.998Z,6.12
2019-05-09T02:51:38.684Z,6.22
2019-05-09T02:54:09.553Z,6.33
2019-05-09T02:56:34.856Z,6.40
2019-05-09T02:59:01.922Z,6.48
2019-05-09T03:01:29.552Z,6.55
2019-05-09T03:03:58.908Z,6.61
2019-05-09T03:06:28.305Z,6.67
2019-05-09T03:08:54.611Z,6.66
2019-05-09T03:11:21.687Z,6.61
2019-05-09T03:13:49.743Z,6.58
2019-05-09T03:16:19.072Z,6.57
2019-05-09T03:18:45.624Z,6.57
2019-05-09T03:21:12.697Z,6.54
2019-05-09T03:23:39.780Z,6.48
2019-05-09T03:26:09.170Z,6.38
2019-05-09T03:28:38.644Z,6.29
2019-05-09T03:31:05.095Z,6.22
2019-05-09T03:33:35.574Z,6.15
2019-05-09T03:36:01.230Z,6.07
2019-05-09T03:38:28.686Z,6.01
2019-05-09T03:40:58.002Z,5.97
2019-05-09T03:43:27.302Z,5.97
2019-05-09T03:45:54.816Z,6.00
2019-05-09T03:48:22.222Z,6.00
2019-05-09T03:50:49.660Z,6.00
2019-05-09T03:53:18.471Z,5.98
2019-05-09T03:55:47.464Z,5.95
2019-05-09T03:58:14.568Z,5.91
2019-05-09T04:00:41.946Z,6.00
2019-05-09T04:03:09.430Z,6.13
2019-05-09T04:05:37.678Z,6.24
2019-05-09T04:10:46.965Z,6.29
2019-05-09T04:13:18.860Z,6.30
2019-05-09T04:15:47.725Z,6.27
2019-05-09T04:18:15.039Z,6.25
2019-05-09T04:20:42.430Z,6.27
2019-05-09T04:23:09.519Z,6.31
2019-05-09T04:25:37.657Z,6.37
2019-05-09T04:28:04.908Z,6.46
2019-05-09T04:30:32.328Z,6.89
2019-05-09T04:32:59.711Z,7.18
2019-05-09T04:35:27.984Z,7.86
2019-05-09T04:37:55.543Z,10.14
2019-05-09T04:40:22.983Z,12.27
2019-05-09T04:42:50.219Z,14.16
2019-05-09T04:45:17.773Z,15.44
2019-05-09T04:47:47.195Z,16.49
2019-05-09T04:50:15.423Z,15.94
2019-05-09T04:52:43.746Z,14.81
2019-05-09T04:55:10.832Z,13.61
2019-05-09T04:57:38.362Z,12.38
2019-05-09T05:00:07.595Z,11.45
2019-05-09T05:02:34.942Z,10.75
2019-05-09T05:05:02.033Z,10.52
2019-05-09T05:07:29.111Z,13.73
2019-05-09T05:09:57.750Z,16.96
2019-05-09T05:12:25.148Z,19.03
2019-05-09T05:14:52.236Z,20.65
2019-05-09T05:17:19.654Z,21.41
2019-05-09T05:19:47.791Z,21.24
2019-05-09T05:22:17.958Z,19.18
2019-05-09T05:24:44.381Z,17.00
2019-05-09T05:27:11.868Z,16.49
2019-05-09T05:29:38.963Z,18.57
2019-05-09T05:32:08.472Z,20.48
2019-05-09T05:34:37.726Z,21.79
2019-05-09T05:37:04.438Z,23.04
2019-05-09T05:39:31.892Z,23.71
2019-05-09T05:41:58.968Z,24.36
2019-05-09T05:44:28.307Z,25.20
2019-05-09T05:46:55.395Z,25.75
2019-05-09T05:49:22.744Z,26.21
2019-05-09T05:51:49.831Z,26.21
2019-05-09T05:54:18.167Z,24.79
2019-05-09T05:56:47.463Z,21.95
2019-05-09T05:59:14.613Z,19.53
2019-05-09T06:01:41.705Z,17.48
2019-05-09T06:04:09.130Z,16.28
2019-05-09T06:06:37.482Z,15.30
2019-05-09T06:09:04.911Z,14.68
2019-05-09T06:11:32.251Z,14.40
2019-05-09T06:14:08.075Z,14.29
2019-05-09T06:16:28.463Z,14.00
2019-05-09T06:18:58.344Z,13.64
2019-05-09T06:21:28.106Z,13.88
2019-05-09T06:23:54.703Z,13.77
2019-05-09T06:26:21.811Z,13.50
2019-05-09T06:28:49.143Z,13.13
2019-05-09T06:31:17.936Z,12.65
2019-05-09T06:33:47.565Z,12.30
2019-05-09T06:36:14.701Z,11.76
2019-05-09T06:38:42.137Z,11.52
2019-05-09T06:41:12.092Z,11.45
2019-05-09T06:43:39.474Z,11.42
2019-05-09T06:46:08.097Z,11.41
2019-05-09T06:48:37.637Z,11.40
2019-05-09T06:51:04.186Z,11.34
2019-05-09T06:53:31.262Z,11.43
2019-05-09T06:55:58.665Z,11.30
2019-05-09T06:58:27.676Z,11.20
2019-05-09T07:00:58.287Z,11.16
2019-05-09T07:03:24.629Z,11.37
2019-05-09T07:05:51.703Z,11.74
2019-05-09T07:08:19.963Z,12.06
2019-05-09T07:10:48.381Z,12.72
2019-05-09T07:13:15.540Z,13.46
2019-05-09T07:15:42.906Z,13.79
2019-05-09T07:18:09.991Z,13.74
2019-05-09T07:20:37.952Z,13.62
2019-05-09T07:23:09.058Z,13.82
2019-05-09T07:25:37.820Z,14.18
2019-05-09T07:28:07.514Z,14.69
2019-05-09T07:30:33.783Z,15.35
2019-05-09T07:33:00.974Z,16.69
2019-05-09T07:35:28.411Z,17.50
2019-05-09T07:37:57.731Z,17.63
2019-05-09T07:40:27.930Z,17.92
2019-05-09T07:42:53.335Z,18.64
2019-05-09T07:45:20.406Z,18.29
2019-05-09T07:47:48.003Z,17.66
2019-05-09T07:50:15.257Z,17.42
2019-05-09T07:52:42.653Z,17.34
2019-05-09T07:55:09.729Z,17.41
2019-05-09T07:57:45.010Z,16.74
2019-05-09T08:00:07.619Z,16.72
2019-05-09T08:02:34.397Z,16.88
2019-05-09T08:05:01.789Z,16.56
2019-05-09T08:07:29.257Z,16.23
2019-05-09T08:09:57.951Z,15.77
2019-05-09T08:12:25.177Z,15.03
2019-05-09T08:15:07.542Z,14.08
2019-05-09T08:17:21.634Z,13.48
2019-05-09T08:19:50.051Z,13.06
2019-05-09T08:22:24.910Z,12.74
2019-05-09T08:24:48.345Z,12.67
2019-05-09T08:27:17.499Z,12.70
2019-05-09T08:29:44.575Z,12.73
2019-05-09T08:32:12.012Z,12.73
2019-05-09T08:34:39.097Z,12.64
2019-05-09T08:37:08.104Z,12.57
2019-05-09T08:39:38.243Z,12.37
2019-05-09T08:42:08.440Z,12.17
2019-05-09T08:44:37.762Z,11.93
2019-05-09T08:47:04.336Z,11.72
2019-05-09T08:49:31.428Z,11.52
2019-05-09T08:52:10.095Z,11.08
2019-05-09T08:54:27.662Z,10.71
2019-05-09T08:56:55.099Z,10.44
2019-05-09T08:59:22.540Z,10.34
2019-05-09T09:02:11.194Z,10.26
2019-05-09T09:04:19.036Z,10.21
2019-05-09T09:06:48.196Z,10.14
2019-05-09T09:09:15.029Z,10.32
2019-05-09T09:11:42.098Z,10.55
2019-05-09T09:14:09.405Z,10.82
2019-05-09T09:16:37.925Z,11.07
2019-05-09T09:19:05.415Z,11.13
2019-05-09T09:21:32.833Z,11.24
2019-05-09T09:23:59.872Z,11.49
2019-05-09T09:26:27.827Z,11.39
2019-05-09T09:28:57.576Z,11.54
2019-05-09T09:31:24.384Z,11.72
2019-05-09T09:33:51.427Z,11.49
2019-05-09T09:36:18.479Z,11.25
2019-05-09T09:38:47.957Z,10.88
2019-05-09T09:41:14.593Z,10.72
2019-05-09T09:43:41.969Z,10.32
2019-05-09T09:46:14.388Z,10.29
2019-05-09T09:48:38.846Z,10.23
2019-05-09T09:51:08.072Z,10.09
2019-05-09T09:53:35.295Z,9.96
2019-05-09T09:56:02.409Z,9.80
2019-05-09T09:58:29.783Z,9.65
2019-05-09T10:00:58.380Z,9.49
2019-05-09T10:03:25.929Z,9.51
2019-05-09T10:05:53.282Z,9.67
2019-05-09T10:08:20.653Z,9.74
2019-05-09T10:10:48.560Z,9.81
2019-05-09T10:13:18.329Z,9.92
2019-05-09T10:15:47.306Z,9.88
2019-05-09T10:18:13.857Z,9.95
2019-05-09T10:20:40.914Z,10.12
2019-05-09T10:23:15.177Z,10.39
2019-05-09T10:25:38.222Z,10.94
2019-05-09T10:28:05.558Z,11.30
2019-05-09T10:30:32.676Z,11.56
2019-05-09T10:33:00.027Z,11.73
2019-05-09T10:35:28.147Z,11.83
2019-05-09T10:37:58.939Z,11.59
2019-05-09T10:40:27.955Z,11.53
2019-05-09T10:42:54.408Z,11.34
2019-05-09T10:45:21.441Z,11.52
2019-05-09T10:47:48.767Z,12.07
2019-05-09T10:50:18.318Z,12.33
2019-05-09T10:52:44.814Z,12.81
2019-05-09T10:55:11.924Z,13.18
2019-05-09T10:57:42.435Z,13.23
2019-05-09T11:00:08.826Z,13.10
2019-05-09T11:02:36.031Z,13.11
2019-05-09T11:05:03.325Z,12.96
2019-05-09T11:07:31.506Z,13.10
2019-05-09T11:09:58.996Z,13.11
2019-05-09T11:12:27.574Z,13.14
2019-05-09T11:14:55.109Z,13.38
2019-05-09T11:17:23.127Z,13.50
2019-05-09T11:19:50.466Z,13.51
2019-05-09T11:22:18.443Z,13.56
2019-05-09T11:24:48.119Z,13.35
2019-05-09T11:27:14.535Z,13.14
2019-05-09T11:29:41.578Z,13.08
2019-05-09T11:32:08.634Z,12.86
2019-05-09T11:34:37.586Z,12.92
2019-05-09T11:37:04.413Z,12.88
2019-05-09T11:39:36.556Z,12.95
2019-05-09T11:42:00.455Z,12.86
2019-05-09T11:44:27.547Z,12.87
2019-05-09T11:46:54.615Z,12.95
2019-05-09T11:49:21.964Z,12.93
2019-05-09T11:51:49.342Z,12.84
2019-05-09T11:54:19.043Z,12.71
2019-05-09T11:56:48.020Z,12.67
2019-05-09T11:59:14.213Z,12.53
2019-05-09T12:01:41.241Z,12.37
2019-05-09T12:04:08.579Z,12.15
2019-05-09T12:06:38.044Z,11.96
2019-05-09T12:09:04.370Z,11.82
2019-05-09T12:11:31.403Z,11.74
2019-05-09T12:13:58.484Z,11.57
2019-05-09T12:16:27.735Z,11.32
2019-05-09T12:18:54.302Z,11.03
2019-05-09T12:21:21.336Z,10.92
2019-05-09T12:23:49.116Z,10.83
2019-05-09T12:26:17.971Z,10.71
2019-05-09T12:28:48.462Z,10.65
2019-05-09T12:31:17.819Z,10.58
2019-05-09T12:33:44.291Z,10.49
2019-05-09T12:36:11.327Z,10.40
2019-05-09T12:38:38.939Z,10.33
2019-05-09T12:41:07.822Z,10.30
2019-05-09T12:43:34.982Z,10.23
2019-05-09T12:46:02.021Z,10.16
2019-05-09T12:48:29.374Z,10.11
2019-05-09T12:50:58.483Z,9.99
2019-05-09T12:53:27.388Z,9.91
2019-05-09T12:55:53.948Z,9.87
2019-05-09T12:58:21.326Z,9.77
2019-05-09T13:00:51.848Z,9.69
2019-05-09T13:03:17.897Z,9.68
2019-05-09T13:05:47.005Z,9.75
2019-05-09T13:08:14.427Z,9.86
2019-05-09T13:10:41.782Z,9.91
2019-05-09T13:13:09.063Z,9.87
2019-05-09T13:15:38.439Z,9.90
2019-05-09T13:18:04.879Z,9.92
2019-05-09T13:20:31.938Z,9.94
2019-05-09T13:22:59.002Z,9.94
2019-05-09T13:25:26.037Z,9.87
2019-05-09T13:27:53.391Z,9.86
2019-05-09T13:30:20.438Z,9.81
2019-05-09T13:32:48.497Z,9.78
2019-05-09T13:35:19.503Z,9.72
2019-05-09T13:37:44.636Z,9.70
2019-05-09T13:40:11.696Z,9.69
2019-05-09T13:42:39.693Z,9.71
2019-05-09T13:45:08.311Z,9.82
2019-05-09T13:47:37.862Z,9.93
2019-05-09T13:50:04.506Z,10.16
2019-05-09T13:52:31.837Z,10.38
2019-05-09T13:54:58.896Z,10.69
2019-05-09T13:57:27.737Z,10.93
2019-05-09T13:59:54.953Z,11.03
2019-05-09T14:02:22.300Z,11.04
2019-05-09T14:04:49.353Z,11.02
2019-05-09T14:07:19.054Z,10.95
2019-05-09T14:09:48.164Z,10.85
2019-05-09T14:12:14.572Z,10.77
2019-05-09T14:14:41.926Z,10.70
2019-05-09T14:17:13.535Z,10.63
2019-05-09T14:19:45.692Z,10.46
2019-05-09T14:22:08.260Z,10.46
2019-05-09T14:24:35.468Z,10.46
2019-05-09T14:27:02.516Z,10.57
2019-05-09T14:29:31.481Z,10.53
2019-05-09T14:31:58.309Z,10.55
2019-05-09T14:34:25.707Z,10.58
2019-05-09T14:36:52.749Z,10.53
2019-05-09T14:39:19.785Z,10.42
2019-05-09T14:41:47.412Z,10.39
2019-05-09T14:44:14.812Z,10.40
2019-05-09T14:46:41.866Z,10.48
2019-05-09T14:49:08.898Z,10.42
2019-05-09T14:51:38.059Z,10.61
2019-05-09T14:54:04.689Z,10.76
2019-05-09T14:56:32.090Z,10.75
2019-05-09T14:58:59.442Z,10.58
2019-05-09T15:01:28.667Z,10.48
2019-05-09T15:03:55.484Z,10.34
2019-05-09T15:06:22.778Z,10.31
2019-05-09T15:08:49.910Z,10.43
2019-05-09T15:11:18.217Z,10.53
2019-05-09T15:13:47.555Z,10.63
2019-05-09T15:21:31.779Z,10.81
2019-05-09T15:23:59.387Z,10.60
2019-05-09T15:26:27.533Z,10.60
2019-05-09T15:28:57.725Z,10.63
2019-05-09T15:31:23.899Z,10.47
2019-05-09T15:33:50.930Z,10.39
2019-05-09T15:36:19.345Z,10.47
2019-05-09T15:38:48.662Z,10.46
2019-05-09T15:41:18.341Z,10.68
2019-05-09T15:43:45.081Z,10.70
2019-05-09T15:46:12.114Z,10.56
2019-05-09T15:48:39.516Z,10.43
2019-05-09T15:51:07.545Z,10.34
2019-05-09T15:53:34.698Z,10.19
2019-05-09T15:56:02.462Z,10.08
2019-05-09T15:58:29.530Z,10.00
2019-05-09T16:00:58.924Z,9.94
2019-05-09T16:03:27.895Z,9.94
2019-05-09T16:05:54.818Z,9.98
2019-05-09T16:08:21.890Z,10.07
2019-05-09T16:10:49.312Z,10.24
2019-05-09T16:13:17.782Z,10.15
2019-05-09T16:15:45.233Z,10.09
2019-05-09T16:18:12.429Z,10.08
2019-05-09T16:20:41.265Z,10.12
2019-05-09T16:23:08.882Z,10.13
2019-05-09T16:25:38.550Z,10.04
2019-05-09T16:28:04.666Z,10.08
2019-05-09T16:30:31.697Z,10.05
2019-05-09T16:32:58.831Z,10.05
2019-05-09T16:35:25.856Z,10.01
2019-05-09T16:38:05.180Z,9.98
2019-05-09T16:40:22.029Z,9.86
2019-05-09T16:42:49.070Z,9.88
2019-05-09T16:45:18.215Z,9.89
2019-05-09T16:47:45.090Z,9.82
2019-05-09T16:50:12.337Z,9.81
2019-05-09T16:52:43.410Z,9.87
2019-05-09T16:55:08.484Z,9.95
2019-05-09T16:57:37.733Z,9.92
2019-05-09T17:00:04.552Z,9.92
2019-05-09T17:02:31.941Z,9.86
2019-05-09T17:04:59.310Z,9.77
2019-05-09T17:07:27.833Z,9.74
2019-05-09T17:09:54.871Z,9.76
2019-05-09T17:12:22.168Z,9.79
2019-05-09T17:14:49.475Z,9.80
2019-05-09T17:17:17.837Z,9.81
2019-05-09T17:19:45.384Z,9.79
2019-05-09T17:22:12.656Z,9.77
2019-05-09T17:24:39.699Z,9.75
2019-05-09T17:27:08.706Z,9.72
2019-05-09T17:29:38.264Z,9.71
2019-05-09T17:32:07.586Z,9.72
2019-05-09T17:34:34.112Z,9.74
2019-05-09T17:37:01.473Z,9.75
2019-05-09T17:39:28.821Z,9.76
2019-05-09T17:41:58.259Z,9.72
2019-05-09T17:44:27.936Z,9.70
2019-05-09T17:46:54.009Z,9.68
2019-05-09T17:49:21.417Z,9.68
2019-05-09T17:51:48.772Z,9.67
2019-05-09T17:54:18.108Z,9.70
2019-05-09T17:56:44.553Z,9.73
2019-05-09T17:59:11.860Z,9.76
2019-05-09T18:01:38.902Z,9.78
2019-05-09T18:04:08.925Z,9.76
2019-05-09T18:06:37.724Z,9.74
2019-05-09T18:09:04.154Z,9.70
2019-05-09T18:11:31.156Z,9.67
2019-05-09T18:13:58.200Z,9.61
2019-05-09T18:16:28.282Z,9.55
2019-05-09T18:18:54.290Z,9.48
2019-05-09T18:21:21.319Z,9.39
2019-05-09T18:23:48.354Z,9.32
2019-05-09T18:26:15.755Z,9.29
2019-05-09T18:28:44.831Z,9.25
2019-05-09T18:31:11.886Z,9.21
2019-05-09T18:33:38.912Z,9.23
2019-05-09T18:36:05.960Z,9.21
2019-05-09T18:38:33.333Z,9.24
2019-05-09T18:41:00.689Z,9.23
2019-05-09T18:43:27.745Z,9.22
2019-05-09T18:45:54.769Z,9.20
2019-05-09T18:48:21.801Z,9.21
2019-05-09T18:50:49.189Z,9.20
2019-05-09T18:53:16.220Z,9.21
2019-05-09T18:55:43.509Z,9.24
2019-05-09T18:58:10.864Z,9.25
2019-05-09T19:00:37.911Z,9.25
2019-05-09T19:03:05.262Z,9.26
2019-05-09T19:05:32.599Z,9.27
2019-05-09T19:07:59.635Z,9.27
2019-05-09T19:10:26.678Z,9.28
2019-05-09T19:15:39.256Z,9.29
2019-05-09T19:18:06.286Z,9.32
2019-05-09T19:20:33.631Z,9.30
2019-05-09T19:23:00.659Z,9.31
2019-05-09T19:25:27.709Z,9.34
2019-05-09T19:27:55.004Z,9.36
2019-05-09T19:30:23.458Z,9.38
2019-05-09T19:32:50.505Z,9.36
2019-05-09T19:35:17.792Z,9.34
2019-05-09T19:37:45.079Z,9.33
2019-05-09T19:40:12.118Z,9.29
2019-05-09T19:42:39.531Z,9.28
2019-05-09T19:45:06.869Z,9.26
2019-05-09T19:47:33.983Z,9.22
2019-05-09T19:50:01.014Z,9.19
2019-05-09T19:52:37.712Z,9.16
2019-05-09T19:54:59.485Z,9.13
2019-05-09T19:57:26.820Z,9.09
2019-05-09T19:59:54.924Z,9.04
2019-05-09T20:02:22.273Z,9.01
2019-05-09T20:04:49.304Z,8.95
2019-05-09T20:07:16.649Z,8.91
2019-05-09T20:09:43.828Z,8.89
2019-05-09T20:12:10.877Z,8.91
2019-05-09T20:14:37.985Z,8.94
2019-05-09T20:17:05.052Z,8.97
2019-05-09T20:19:32.480Z,9.02
2019-05-09T20:21:59.525Z,9.03
2019-05-09T20:24:26.911Z,9.02
2019-05-09T20:26:53.958Z,9.02
2019-05-09T20:29:20.987Z,9.02
2019-05-09T20:31:48.032Z,9.01
2019-05-09T20:34:15.070Z,9.01
2019-05-09T20:36:42.528Z,8.98
2019-05-09T20:39:10.012Z,8.99
2019-05-09T20:41:37.048Z,8.99
2019-05-09T20:44:04.165Z,8.98
2019-05-09T20:46:31.365Z,8.94
2019-05-09T20:48:58.433Z,8.92
2019-05-09T20:51:25.452Z,8.91
2019-05-09T20:53:53.471Z,8.88
2019-05-09T20:56:20.506Z,8.87
2019-05-09T20:58:47.848Z,8.88
2019-05-09T21:01:15.185Z,8.90
2019-05-09T21:03:57.759Z,8.93
2019-05-09T21:06:14.252Z,8.93
2019-05-09T21:08:41.298Z,8.95
2019-05-09T21:11:08.610Z,8.92
2019-05-09T21:13:47.848Z,8.87
2019-05-09T21:16:04.392Z,8.78
2019-05-09T21:18:31.623Z,8.73
2019-05-09T21:20:58.965Z,8.72
2019-05-09T21:23:26.246Z,8.65
2019-05-09T21:25:53.284Z,8.61
2019-05-09T21:28:20.601Z,8.59
2019-05-09T21:30:47.638Z,8.63
2019-05-09T21:33:15.023Z,8.61
2019-05-09T21:35:42.053Z,8.56
2019-05-09T21:38:09.099Z,8.48
2019-05-09T21:40:36.134Z,8.46
2019-05-09T21:43:03.259Z,8.49
2019-05-09T21:45:30.277Z,8.44
2019-05-09T21:47:57.325Z,8.40
2019-05-09T21:50:24.355Z,8.46
2019-05-09T21:52:51.413Z,8.51
2019-05-09T21:55:18.448Z,8.50
2019-05-09T21:57:45.795Z,8.56
2019-05-09T22:00:12.840Z,8.61
2019-05-09T22:02:41.572Z,8.65
2019-05-09T22:05:08.995Z,8.66
2019-05-09T22:07:36.352Z,8.69
2019-05-09T22:10:03.403Z,8.72
2019-05-09T22:12:30.901Z,8.72
2019-05-09T22:14:57.943Z,8.75
2019-05-09T22:17:24.978Z,8.78
2019-05-09T22:19:52.024Z,8.79
2019-05-09T22:22:19.073Z,8.83
2019-05-09T22:24:46.103Z,8.83
2019-05-09T22:27:13.444Z,8.84
2019-05-09T22:29:40.488Z,8.83
2019-05-09T22:32:07.522Z,8.83
2019-05-09T22:34:34.883Z,8.82
2019-05-09T22:37:02.879Z,8.81
2019-05-09T22:39:30.207Z,8.83
2019-05-09T22:41:57.565Z,8.82
2019-05-09T22:44:24.937Z,8.80
2019-05-09T22:46:52.273Z,8.80
2019-05-09T22:49:19.321Z,8.79
2019-05-09T22:51:46.596Z,8.80
2019-05-09T22:54:13.664Z,8.80
2019-05-09T22:56:42.005Z,8.81
2019-05-09T22:59:09.357Z,8.82
2019-05-09T23:01:36.387Z,8.78
2019-05-09T23:04:03.763Z,8.79
2019-05-09T23:06:31.046Z,8.78
2019-05-09T23:08:58.171Z,8.74
2019-05-09T23:11:25.190Z,8.72
2019-05-09T23:13:52.245Z,8.71
2019-05-09T23:16:19.620Z,8.71
2019-05-09T23:18:46.917Z,8.70
2019-05-09T23:21:13.953Z,8.67
2019-05-09T23:23:40.991Z,8.67
2019-05-09T23:26:08.340Z,8.66
2019-05-09T23:28:35.676Z,8.64
2019-05-09T23:31:02.723Z,8.66
2019-05-09T23:33:30.076Z,8.65
2019-05-09T23:35:57.368Z,8.61
2019-05-09T23:38:24.688Z,8.57
2019-05-09T23:40:51.803Z,8.54
2019-05-09T23:43:18.833Z,8.52
2019-05-09T23:45:45.882Z,8.49
2019-05-09T23:48:12.912Z,8.48
2019-05-09T23:50:40.196Z,8.44
2019-05-09T23:53:07.588Z,8.41
2019-05-09T23:55:34.940Z,8.36
2019-05-09T23:58:02.369Z,8.35
